sensor_id;sensor_type;location;lat;lon;timestamp;temperature;humidity
41644;DHT22;44236;48.098;11.582;2023-04-03T00:01:13;19.00;47.90
41644;DHT22;44236;48.098;11.582;2023-04-03T00:03:39;19.00;48.00
41644;DHT22;44236;48.098;11.582;2023-04-03T00:06:06;19.00;47.40
41644;DHT22;44236;48.098;11.582;2023-04-03T00:08:34;18.90;47.40
41644;DHT22;44236;48.098;11.582;2023-04-03T00:11:00;18.90;47.80
41644;DHT22;44236;48.098;11.582;2023-04-03T00:13:26;18.90;47.70
41644;DHT22;44236;48.098;11.582;2023-04-03T00:15:52;18.90;47.70
41644;DHT22;44236;48.098;11.582;2023-04-03T00:18:18;18.90;47.10
41644;DHT22;44236;48.098;11.582;2023-04-03T00:20:43;18.80;47.80
41644;DHT22;44236;48.098;11.582;2023-04-03T00:23:09;18.80;47.70
41644;DHT22;44236;48.098;11.582;2023-04-03T00:25:35;18.80;47.60
41644;DHT22;44236;48.098;11.582;2023-04-03T00:28:01;18.80;47.70
41644;DHT22;44236;48.098;11.582;2023-04-03T00:30:27;18.80;48.00
41644;DHT22;44236;48.098;11.582;2023-04-03T00:32:53;18.70;47.50
41644;DHT22;44236;48.098;11.582;2023-04-03T00:35:20;18.70;47.50
41644;DHT22;44236;48.098;11.582;2023-04-03T00:37:46;18.70;47.40
41644;DHT22;44236;48.098;11.582;2023-04-03T00:40:14;18.90;47.90
41644;DHT22;44236;48.098;11.582;2023-04-03T00:42:43;18.70;47.60
41644;DHT22;44236;48.098;11.582;2023-04-03T00:45:38;18.70;47.40
41644;DHT22;44236;48.098;11.582;2023-04-03T00:48:07;18.60;47.70
41644;DHT22;44236;48.098;11.582;2023-04-03T00:50:36;18.60;47.30
41644;DHT22;44236;48.098;11.582;2023-04-03T00:53:04;18.60;47.30
41644;DHT22;44236;48.098;11.582;2023-04-03T00:55:30;18.60;47.20
41644;DHT22;44236;48.098;11.582;2023-04-03T00:57:56;18.60;47.10
41644;DHT22;44236;48.098;11.582;2023-04-03T01:00:23;18.60;47.00
41644;DHT22;44236;48.098;11.582;2023-04-03T01:02:50;18.60;47.10
41644;DHT22;44236;48.098;11.582;2023-04-03T01:05:17;18.60;46.80
41644;DHT22;44236;48.098;11.582;2023-04-03T01:07:43;18.50;47.10
41644;DHT22;44236;48.098;11.582;2023-04-03T01:10:11;18.50;47.40
41644;DHT22;44236;48.098;11.582;2023-04-03T01:12:41;18.50;46.70
41644;DHT22;44236;48.098;11.582;2023-04-03T01:15:19;18.50;47.00
41644;DHT22;44236;48.098;11.582;2023-04-03T01:17:48;18.50;47.00
41644;DHT22;44236;48.098;11.582;2023-04-03T01:25:48;18.40;47.10
41644;DHT22;44236;48.098;11.582;2023-04-03T01:28:18;18.40;47.50
41644;DHT22;44236;48.098;11.582;2023-04-03T01:33:33;18.40;47.20
41644;DHT22;44236;48.098;11.582;2023-04-03T01:35:58;18.40;47.20
41644;DHT22;44236;48.098;11.582;2023-04-03T01:38:24;18.30;46.60
41644;DHT22;44236;48.098;11.582;2023-04-03T01:40:50;18.30;46.60
41644;DHT22;44236;48.098;11.582;2023-04-03T01:43:16;18.30;47.10
41644;DHT22;44236;48.098;11.582;2023-04-03T01:45:42;18.30;46.70
41644;DHT22;44236;48.098;11.582;2023-04-03T01:48:07;18.30;46.60
41644;DHT22;44236;48.098;11.582;2023-04-03T01:50:33;18.30;46.60
41644;DHT22;44236;48.098;11.582;2023-04-03T01:52:59;18.30;46.70
41644;DHT22;44236;48.098;11.582;2023-04-03T01:55:25;18.30;46.60
41644;DHT22;44236;48.098;11.582;2023-04-03T01:57:50;18.30;46.80
41644;DHT22;44236;48.098;11.582;2023-04-03T02:00:16;18.20;46.60
41644;DHT22;44236;48.098;11.582;2023-04-03T02:02:45;18.20;46.90
41644;DHT22;44236;48.098;11.582;2023-04-03T02:05:11;18.20;46.60
41644;DHT22;44236;48.098;11.582;2023-04-03T02:07:36;18.20;46.80
41644;DHT22;44236;48.098;11.582;2023-04-03T02:10:02;18.20;46.50
41644;DHT22;44236;48.098;11.582;2023-04-03T02:12:28;18.10;46.60
41644;DHT22;44236;48.098;11.582;2023-04-03T02:14:53;18.10;46.70
41644;DHT22;44236;48.098;11.582;2023-04-03T02:17:19;18.10;46.80
41644;DHT22;44236;48.098;11.582;2023-04-03T02:19:45;18.10;46.50
41644;DHT22;44236;48.098;11.582;2023-04-03T02:22:10;18.10;46.30
41644;DHT22;44236;48.098;11.582;2023-04-03T02:24:36;18.10;46.40
41644;DHT22;44236;48.098;11.582;2023-04-03T02:27:04;18.10;46.30
41644;DHT22;44236;48.098;11.582;2023-04-03T02:29:30;18.10;46.20
41644;DHT22;44236;48.098;11.582;2023-04-03T02:31:55;18.10;46.20
41644;DHT22;44236;48.098;11.582;2023-04-03T02:34:21;18.10;46.40
41644;DHT22;44236;48.098;11.582;2023-04-03T02:36:47;18.10;46.50
41644;DHT22;44236;48.098;11.582;2023-04-03T02:39:12;18.10;46.00
41644;DHT22;44236;48.098;11.582;2023-04-03T02:41:38;18.10;46.20
41644;DHT22;44236;48.098;11.582;2023-04-03T02:44:06;18.10;45.80
41644;DHT22;44236;48.098;11.582;2023-04-03T02:46:32;18.10;46.00
41644;DHT22;44236;48.098;11.582;2023-04-03T02:48:58;18.10;45.80
41644;DHT22;44236;48.098;11.582;2023-04-03T02:51:24;18.00;45.80
41644;DHT22;44236;48.098;11.582;2023-04-03T02:53:50;18.00;45.70
41644;DHT22;44236;48.098;11.582;2023-04-03T02:56:16;18.00;45.80
41644;DHT22;44236;48.098;11.582;2023-04-03T02:58:43;18.10;45.80
41644;DHT22;44236;48.098;11.582;2023-04-03T03:01:10;18.00;45.50
41644;DHT22;44236;48.098;11.582;2023-04-03T03:03:35;18.00;46.00
41644;DHT22;44236;48.098;11.582;2023-04-03T03:08:28;18.00;45.60
41644;DHT22;44236;48.098;11.582;2023-04-03T03:10:53;18.00;45.50
41644;DHT22;44236;48.098;11.582;2023-04-03T03:13:19;18.10;45.60
41644;DHT22;44236;48.098;11.582;2023-04-03T03:15:44;18.00;45.70
41644;DHT22;44236;48.098;11.582;2023-04-03T03:18:10;18.00;45.70
41644;DHT22;44236;48.098;11.582;2023-04-03T03:20:36;18.00;45.30
41644;DHT22;44236;48.098;11.582;2023-04-03T03:23:01;18.00;45.60
41644;DHT22;44236;48.098;11.582;2023-04-03T03:25:27;18.00;45.60
41644;DHT22;44236;48.098;11.582;2023-04-03T03:27:52;18.00;45.80
41644;DHT22;44236;48.098;11.582;2023-04-03T03:30:18;18.00;45.30
41644;DHT22;44236;48.098;11.582;2023-04-03T03:32:44;18.00;45.40
41644;DHT22;44236;48.098;11.582;2023-04-03T03:35:09;18.00;45.50
41644;DHT22;44236;48.098;11.582;2023-04-03T03:37:35;18.00;45.40
41644;DHT22;44236;48.098;11.582;2023-04-03T03:40:01;18.00;45.40
41644;DHT22;44236;48.098;11.582;2023-04-03T03:42:27;18.00;45.30
41644;DHT22;44236;48.098;11.582;2023-04-03T03:44:52;18.00;45.50
41644;DHT22;44236;48.098;11.582;2023-04-03T03:47:18;18.00;45.50
41644;DHT22;44236;48.098;11.582;2023-04-03T03:49:44;18.00;45.60
41644;DHT22;44236;48.098;11.582;2023-04-03T03:52:09;18.00;45.30
41644;DHT22;44236;48.098;11.582;2023-04-03T03:54:38;18.00;45.40
41644;DHT22;44236;48.098;11.582;2023-04-03T03:57:04;18.00;45.20
41644;DHT22;44236;48.098;11.582;2023-04-03T03:59:30;18.00;45.40
41644;DHT22;44236;48.098;11.582;2023-04-03T04:01:55;18.00;45.40
41644;DHT22;44236;48.098;11.582;2023-04-03T04:04:21;18.00;45.30
41644;DHT22;44236;48.098;11.582;2023-04-03T04:06:47;18.00;45.20
41644;DHT22;44236;48.098;11.582;2023-04-03T04:09:12;18.00;45.20
41644;DHT22;44236;48.098;11.582;2023-04-03T04:11:38;18.00;45.30
41644;DHT22;44236;48.098;11.582;2023-04-03T04:14:06;18.00;45.30
41644;DHT22;44236;48.098;11.582;2023-04-03T04:16:32;18.00;45.20
41644;DHT22;44236;48.098;11.582;2023-04-03T04:18:57;17.90;45.20
41644;DHT22;44236;48.098;11.582;2023-04-03T04:21:23;17.90;45.40
41644;DHT22;44236;48.098;11.582;2023-04-03T04:23:49;17.90;45.30
41644;DHT22;44236;48.098;11.582;2023-04-03T04:26:14;18.00;45.50
41644;DHT22;44236;48.098;11.582;2023-04-03T04:28:40;17.90;45.50
41644;DHT22;44236;48.098;11.582;2023-04-03T04:31:05;18.00;45.40
41644;DHT22;44236;48.098;11.582;2023-04-03T04:33:31;17.90;45.50
41644;DHT22;44236;48.098;11.582;2023-04-03T04:35:56;18.00;45.40
41644;DHT22;44236;48.098;11.582;2023-04-03T04:38:22;17.90;45.60
41644;DHT22;44236;48.098;11.582;2023-04-03T04:40:48;18.00;45.80
41644;DHT22;44236;48.098;11.582;2023-04-03T04:43:14;18.00;45.80
41644;DHT22;44236;48.098;11.582;2023-04-03T04:45:41;18.00;45.80
41644;DHT22;44236;48.098;11.582;2023-04-03T04:48:07;18.10;45.90
41644;DHT22;44236;48.098;11.582;2023-04-03T04:50:35;18.00;45.80
41644;DHT22;44236;48.098;11.582;2023-04-03T04:53:01;18.10;45.90
41644;DHT22;44236;48.098;11.582;2023-04-03T04:55:26;18.10;45.90
41644;DHT22;44236;48.098;11.582;2023-04-03T04:57:52;18.10;46.00
41644;DHT22;44236;48.098;11.582;2023-04-03T05:00:18;18.10;45.90
41644;DHT22;44236;48.098;11.582;2023-04-03T05:02:44;18.10;46.00
41644;DHT22;44236;48.098;11.582;2023-04-03T05:05:12;18.10;45.80
41644;DHT22;44236;48.098;11.582;2023-04-03T05:07:38;18.20;45.70
41644;DHT22;44236;48.098;11.582;2023-04-03T05:10:04;18.20;45.70
41644;DHT22;44236;48.098;11.582;2023-04-03T05:12:29;18.20;45.90
41644;DHT22;44236;48.098;11.582;2023-04-03T05:14:55;18.20;46.00
41644;DHT22;44236;48.098;11.582;2023-04-03T05:17:21;18.20;45.80
41644;DHT22;44236;48.098;11.582;2023-04-03T05:19:46;18.20;45.80
41644;DHT22;44236;48.098;11.582;2023-04-03T05:22:12;18.30;45.80
41644;DHT22;44236;48.098;11.582;2023-04-03T05:24:37;18.30;45.90
41644;DHT22;44236;48.098;11.582;2023-04-03T05:27:04;18.20;44.90
41644;DHT22;44236;48.098;11.582;2023-04-03T05:29:29;17.50;41.10
41644;DHT22;44236;48.098;11.582;2023-04-03T05:31:55;16.90;39.60
41644;DHT22;44236;48.098;11.582;2023-04-03T05:34:21;16.90;42.10
41644;DHT22;44236;48.098;11.582;2023-04-03T05:36:46;17.10;43.90
41644;DHT22;44236;48.098;11.582;2023-04-03T05:39:12;17.30;44.40
41644;DHT22;44236;48.098;11.582;2023-04-03T05:41:38;17.50;44.20
41644;DHT22;44236;48.098;11.582;2023-04-03T05:44:03;17.70;44.40
41644;DHT22;44236;48.098;11.582;2023-04-03T05:46:29;17.80;44.30
41644;DHT22;44236;48.098;11.582;2023-04-03T05:48:55;17.90;44.40
41644;DHT22;44236;48.098;11.582;2023-04-03T05:51:28;18.00;44.10
41644;DHT22;44236;48.098;11.582;2023-04-03T05:54:13;18.10;44.40
41644;DHT22;44236;48.098;11.582;2023-04-03T05:56:41;18.10;44.30
41644;DHT22;44236;48.098;11.582;2023-04-03T05:59:07;18.10;44.20
41644;DHT22;44236;48.098;11.582;2023-04-03T06:01:33;18.20;44.40
41644;DHT22;44236;48.098;11.582;2023-04-03T06:03:59;18.20;44.30
41644;DHT22;44236;48.098;11.582;2023-04-03T06:06:25;18.30;44.50
41644;DHT22;44236;48.098;11.582;2023-04-03T06:08:51;18.30;44.60
41644;DHT22;44236;48.098;11.582;2023-04-03T06:11:17;18.30;44.30
41644;DHT22;44236;48.098;11.582;2023-04-03T06:13:42;18.30;44.30
41644;DHT22;44236;48.098;11.582;2023-04-03T06:16:11;18.30;44.50
41644;DHT22;44236;48.098;11.582;2023-04-03T06:18:40;18.30;44.60
41644;DHT22;44236;48.098;11.582;2023-04-03T06:21:06;18.40;44.60
41644;DHT22;44236;48.098;11.582;2023-04-03T06:23:33;18.40;44.40
41644;DHT22;44236;48.098;11.582;2023-04-03T06:25:59;18.40;44.40
41644;DHT22;44236;48.098;11.582;2023-04-03T06:28:25;18.40;44.70
41644;DHT22;44236;48.098;11.582;2023-04-03T06:30:51;18.40;44.30
41644;DHT22;44236;48.098;11.582;2023-04-03T06:33:17;19.60;44.30
41644;DHT22;44236;48.098;11.582;2023-04-03T06:35:42;18.50;43.10
41644;DHT22;44236;48.098;11.582;2023-04-03T06:38:08;18.50;44.40
41644;DHT22;44236;48.098;11.582;2023-04-03T06:40:35;18.50;44.00
41644;DHT22;44236;48.098;11.582;2023-04-03T06:43:01;18.50;44.50
41644;DHT22;44236;48.098;11.582;2023-04-03T06:45:27;18.50;44.50
41644;DHT22;44236;48.098;11.582;2023-04-03T06:47:53;18.50;45.00
41644;DHT22;44236;48.098;11.582;2023-04-03T06:50:19;18.50;44.60
41644;DHT22;44236;48.098;11.582;2023-04-03T06:52:45;18.50;44.70
41644;DHT22;44236;48.098;11.582;2023-04-03T06:55:11;18.50;44.80
41644;DHT22;44236;48.098;11.582;2023-04-03T06:57:37;18.50;45.00
41644;DHT22;44236;48.098;11.582;2023-04-03T07:00:04;18.60;45.00
41644;DHT22;44236;48.098;11.582;2023-04-03T07:02:30;18.60;45.00
41644;DHT22;44236;48.098;11.582;2023-04-03T07:04:56;18.60;45.00
41644;DHT22;44236;48.098;11.582;2023-04-03T07:07:22;18.60;44.80
41644;DHT22;44236;48.098;11.582;2023-04-03T07:09:47;18.60;42.70
41644;DHT22;44236;48.098;11.582;2023-04-03T07:12:13;18.60;44.80
41644;DHT22;44236;48.098;11.582;2023-04-03T07:14:39;18.60;45.00
41644;DHT22;44236;48.098;11.582;2023-04-03T07:17:05;18.60;45.00
41644;DHT22;44236;48.098;11.582;2023-04-03T07:19:30;18.60;44.50
41644;DHT22;44236;48.098;11.582;2023-04-03T07:21:56;18.70;42.90
41644;DHT22;44236;48.098;11.582;2023-04-03T07:24:22;18.70;42.80
41644;DHT22;44236;48.098;11.582;2023-04-03T07:26:52;18.70;42.70
41644;DHT22;44236;48.098;11.582;2023-04-03T07:29:18;18.70;41.90
41644;DHT22;44236;48.098;11.582;2023-04-03T07:31:43;18.80;43.00
41644;DHT22;44236;48.098;11.582;2023-04-03T07:34:10;18.80;43.70
41644;DHT22;44236;48.098;11.582;2023-04-03T07:36:36;18.80;43.80
41644;DHT22;44236;48.098;11.582;2023-04-03T07:39:03;18.80;43.90
41644;DHT22;44236;48.098;11.582;2023-04-03T07:41:28;18.80;42.70
41644;DHT22;44236;48.098;11.582;2023-04-03T07:43:55;18.80;42.90
41644;DHT22;44236;48.098;11.582;2023-04-03T07:46:22;18.80;44.30
41644;DHT22;44236;48.098;11.582;2023-04-03T07:48:48;18.80;44.80
41644;DHT22;44236;48.098;11.582;2023-04-03T07:51:14;18.80;44.00
41644;DHT22;44236;48.098;11.582;2023-04-03T07:53:40;18.80;43.70
41644;DHT22;44236;48.098;11.582;2023-04-03T07:56:06;18.80;43.90
41644;DHT22;44236;48.098;11.582;2023-04-03T07:58:32;18.90;43.90
41644;DHT22;44236;48.098;11.582;2023-04-03T08:00:59;18.80;43.20
41644;DHT22;44236;48.098;11.582;2023-04-03T08:03:25;18.90;44.00
41644;DHT22;44236;48.098;11.582;2023-04-03T08:05:51;18.90;43.40
41644;DHT22;44236;48.098;11.582;2023-04-03T08:08:19;18.90;43.30
41644;DHT22;44236;48.098;11.582;2023-04-03T08:10:51;18.90;43.50
41644;DHT22;44236;48.098;11.582;2023-04-03T08:13:17;18.90;44.20
41644;DHT22;44236;48.098;11.582;2023-04-03T08:15:43;18.90;43.60
41644;DHT22;44236;48.098;11.582;2023-04-03T08:18:09;18.90;43.40
41644;DHT22;44236;48.098;11.582;2023-04-03T08:20:34;18.90;43.90
41644;DHT22;44236;48.098;11.582;2023-04-03T08:23:00;18.90;43.70
41644;DHT22;44236;48.098;11.582;2023-04-03T08:25:26;19.00;43.10
41644;DHT22;44236;48.098;11.582;2023-04-03T08:27:51;19.00;43.70
41644;DHT22;44236;48.098;11.582;2023-04-03T08:30:17;19.00;42.50
41644;DHT22;44236;48.098;11.582;2023-04-03T08:32:43;19.00;42.60
41644;DHT22;44236;48.098;11.582;2023-04-03T08:35:09;19.00;44.20
41644;DHT22;44236;48.098;11.582;2023-04-03T08:37:36;19.00;43.00
41644;DHT22;44236;48.098;11.582;2023-04-03T08:40:07;19.00;44.10
41644;DHT22;44236;48.098;11.582;2023-04-03T08:45:49;19.10;43.40
41644;DHT22;44236;48.098;11.582;2023-04-03T08:48:20;19.10;42.30
41644;DHT22;44236;48.098;11.582;2023-04-03T08:50:50;19.10;43.50
41644;DHT22;44236;48.098;11.582;2023-04-03T08:53:29;19.10;42.70
41644;DHT22;44236;48.098;11.582;2023-04-03T08:55:58;19.10;43.10
41644;DHT22;44236;48.098;11.582;2023-04-03T08:58:30;19.10;43.60
41644;DHT22;44236;48.098;11.582;2023-04-03T09:03:25;19.10;43.20
41644;DHT22;44236;48.098;11.582;2023-04-03T09:06:17;19.10;42.60
41644;DHT22;44236;48.098;11.582;2023-04-03T09:17:00;19.10;43.20
41644;DHT22;44236;48.098;11.582;2023-04-03T09:22:25;19.20;43.50
41644;DHT22;44236;48.098;11.582;2023-04-03T09:25:02;19.20;43.40
41644;DHT22;44236;48.098;11.582;2023-04-03T09:27:31;19.20;43.70
41644;DHT22;44236;48.098;11.582;2023-04-03T09:29:57;19.20;43.90
41644;DHT22;44236;48.098;11.582;2023-04-03T09:32:29;19.20;44.20
41644;DHT22;44236;48.098;11.582;2023-04-03T09:34:59;19.20;44.40
41644;DHT22;44236;48.098;11.582;2023-04-03T09:37:44;19.20;43.80
41644;DHT22;44236;48.098;11.582;2023-04-03T09:42:53;19.20;43.80
41644;DHT22;44236;48.098;11.582;2023-04-03T09:45:31;19.20;43.40
41644;DHT22;44236;48.098;11.582;2023-04-03T09:48:16;19.20;43.60
41644;DHT22;44236;48.098;11.582;2023-04-03T09:50:58;19.20;44.30
41644;DHT22;44236;48.098;11.582;2023-04-03T09:53:38;19.20;45.10
41644;DHT22;44236;48.098;11.582;2023-04-03T09:56:27;19.20;44.40
41644;DHT22;44236;48.098;11.582;2023-04-03T10:01:35;19.20;44.50
41644;DHT22;44236;48.098;11.582;2023-04-03T10:04:09;19.20;44.70
41644;DHT22;44236;48.098;11.582;2023-04-03T10:14:25;19.20;44.00
41644;DHT22;44236;48.098;11.582;2023-04-03T10:25:12;19.20;43.40
41644;DHT22;44236;48.098;11.582;2023-04-03T10:57:47;19.20;43.90
41644;DHT22;44236;48.098;11.582;2023-04-03T11:00:39;19.20;44.60
41644;DHT22;44236;48.098;11.582;2023-04-03T11:03:24;19.20;44.70
41644;DHT22;44236;48.098;11.582;2023-04-03T11:05:53;19.20;44.90
41644;DHT22;44236;48.098;11.582;2023-04-03T11:08:36;19.20;45.00
41644;DHT22;44236;48.098;11.582;2023-04-03T11:11:11;19.20;44.00
41644;DHT22;44236;48.098;11.582;2023-04-03T11:14:03;19.20;44.90
41644;DHT22;44236;48.098;11.582;2023-04-03T11:16:33;19.20;44.80
41644;DHT22;44236;48.098;11.582;2023-04-03T11:19:35;19.20;44.80
41644;DHT22;44236;48.098;11.582;2023-04-03T11:24:41;19.20;44.70
41644;DHT22;44236;48.098;11.582;2023-04-03T11:27:16;19.20;44.70
41644;DHT22;44236;48.098;11.582;2023-04-03T11:29:46;19.30;44.60
41644;DHT22;44236;48.098;11.582;2023-04-03T11:32:51;19.30;44.60
41644;DHT22;44236;48.098;11.582;2023-04-03T11:35:18;19.20;44.60
41644;DHT22;44236;48.098;11.582;2023-04-03T11:37:48;19.30;44.70
41644;DHT22;44236;48.098;11.582;2023-04-03T11:42:47;19.40;44.60
41644;DHT22;44236;48.098;11.582;2023-04-03T11:47:56;19.40;44.30
41644;DHT22;44236;48.098;11.582;2023-04-03T11:50:31;19.40;44.10
41644;DHT22;44236;48.098;11.582;2023-04-03T11:53:44;19.40;44.00
41644;DHT22;44236;48.098;11.582;2023-04-03T11:58:34;19.50;43.60
41644;DHT22;44236;48.098;11.582;2023-04-03T12:01:03;19.50;43.10
41644;DHT22;44236;48.098;11.582;2023-04-03T12:03:31;19.60;43.20
41644;DHT22;44236;48.098;11.582;2023-04-03T12:21:23;19.80;42.40
41644;DHT22;44236;48.098;11.582;2023-04-03T12:42:32;20.00;41.10
41644;DHT22;44236;48.098;11.582;2023-04-03T12:45:23;20.00;41.10
41644;DHT22;44236;48.098;11.582;2023-04-03T12:47:55;20.00;41.00
41644;DHT22;44236;48.098;11.582;2023-04-03T12:50:28;20.00;40.90
41644;DHT22;44236;48.098;11.582;2023-04-03T12:53:21;20.00;41.00
41644;DHT22;44236;48.098;11.582;2023-04-03T12:55:53;20.00;40.90
41644;DHT22;44236;48.098;11.582;2023-04-03T12:58:27;20.00;40.60
41644;DHT22;44236;48.098;11.582;2023-04-03T13:01:04;20.00;40.60
41644;DHT22;44236;48.098;11.582;2023-04-03T13:03:35;20.10;40.80
41644;DHT22;44236;48.098;11.582;2023-04-03T13:06:04;20.10;40.30
41644;DHT22;44236;48.098;11.582;2023-04-03T13:08:30;20.10;40.80
41644;DHT22;44236;48.098;11.582;2023-04-03T13:13:22;20.10;40.20
41644;DHT22;44236;48.098;11.582;2023-04-03T13:15:49;20.10;40.10
41644;DHT22;44236;48.098;11.582;2023-04-03T13:18:26;20.10;40.20
41644;DHT22;44236;48.098;11.582;2023-04-03T13:20:56;20.20;39.70
41644;DHT22;44236;48.098;11.582;2023-04-03T13:23:23;20.20;40.20
41644;DHT22;44236;48.098;11.582;2023-04-03T13:25:50;20.20;39.90
41644;DHT22;44236;48.098;11.582;2023-04-03T13:28:20;20.20;39.70
41644;DHT22;44236;48.098;11.582;2023-04-03T13:31:07;20.20;39.50
41644;DHT22;44236;48.098;11.582;2023-04-03T13:33:36;20.20;39.50
41644;DHT22;44236;48.098;11.582;2023-04-03T13:36:10;20.20;39.90
41644;DHT22;44236;48.098;11.582;2023-04-03T13:38:42;20.20;39.30
41644;DHT22;44236;48.098;11.582;2023-04-03T13:41:39;20.20;39.10
41644;DHT22;44236;48.098;11.582;2023-04-03T13:46:48;20.30;38.90
41644;DHT22;44236;48.098;11.582;2023-04-03T13:51:50;20.30;39.00
41644;DHT22;44236;48.098;11.582;2023-04-03T13:57:16;20.30;38.90
41644;DHT22;44236;48.098;11.582;2023-04-03T13:59:42;20.30;39.00
41644;DHT22;44236;48.098;11.582;2023-04-03T14:07:03;20.30;39.50
41644;DHT22;44236;48.098;11.582;2023-04-03T14:09:29;20.30;39.40
41644;DHT22;44236;48.098;11.582;2023-04-03T14:12:11;20.40;39.50
41644;DHT22;44236;48.098;11.582;2023-04-03T14:14:38;20.30;39.40
41644;DHT22;44236;48.098;11.582;2023-04-03T14:17:17;20.40;39.30
41644;DHT22;44236;48.098;11.582;2023-04-03T14:19:44;20.40;39.00
41644;DHT22;44236;48.098;11.582;2023-04-03T14:22:25;20.40;39.20
41644;DHT22;44236;48.098;11.582;2023-04-03T14:24:52;20.40;38.90
41644;DHT22;44236;48.098;11.582;2023-04-03T14:27:25;20.30;39.20
41644;DHT22;44236;48.098;11.582;2023-04-03T14:29:54;20.40;39.20
41644;DHT22;44236;48.098;11.582;2023-04-03T14:32:22;20.40;39.40
41644;DHT22;44236;48.098;11.582;2023-04-03T14:34:49;20.40;38.80
41644;DHT22;44236;48.098;11.582;2023-04-03T14:37:23;20.40;39.00
41644;DHT22;44236;48.098;11.582;2023-04-03T14:39:50;20.40;38.70
41644;DHT22;44236;48.098;11.582;2023-04-03T14:42:22;20.40;38.70
41644;DHT22;44236;48.098;11.582;2023-04-03T14:44:48;20.40;38.50
41644;DHT22;44236;48.098;11.582;2023-04-03T14:47:17;20.40;38.50
41644;DHT22;44236;48.098;11.582;2023-04-03T14:49:43;20.40;38.70
41644;DHT22;44236;48.098;11.582;2023-04-03T14:52:31;20.40;38.70
41644;DHT22;44236;48.098;11.582;2023-04-03T14:54:57;20.40;39.10
41644;DHT22;44236;48.098;11.582;2023-04-03T14:57:24;20.40;38.50
41644;DHT22;44236;48.098;11.582;2023-04-03T14:59:51;20.40;38.70
41644;DHT22;44236;48.098;11.582;2023-04-03T15:02:35;20.40;38.50
41644;DHT22;44236;48.098;11.582;2023-04-03T15:05:04;20.40;38.40
41644;DHT22;44236;48.098;11.582;2023-04-03T15:07:35;20.40;38.20
41644;DHT22;44236;48.098;11.582;2023-04-03T15:10:22;20.40;38.40
41644;DHT22;44236;48.098;11.582;2023-04-03T15:12:49;20.40;38.30
41644;DHT22;44236;48.098;11.582;2023-04-03T15:15:18;20.40;38.30
41644;DHT22;44236;48.098;11.582;2023-04-03T15:17:45;20.40;38.40
41644;DHT22;44236;48.098;11.582;2023-04-03T15:20:22;20.40;38.30
41644;DHT22;44236;48.098;11.582;2023-04-03T15:22:48;20.50;38.40
41644;DHT22;44236;48.098;11.582;2023-04-03T15:25:14;20.50;38.40
41644;DHT22;44236;48.098;11.582;2023-04-03T15:27:40;20.50;38.40
41644;DHT22;44236;48.098;11.582;2023-04-03T15:30:07;20.40;38.90
41644;DHT22;44236;48.098;11.582;2023-04-03T15:32:33;20.50;39.50
41644;DHT22;44236;48.098;11.582;2023-04-03T15:35:00;20.50;38.90
41644;DHT22;44236;48.098;11.582;2023-04-03T15:37:26;20.50;39.10
41644;DHT22;44236;48.098;11.582;2023-04-03T15:39:52;20.50;38.40
41644;DHT22;44236;48.098;11.582;2023-04-03T15:42:17;20.50;38.70
41644;DHT22;44236;48.098;11.582;2023-04-03T15:44:43;20.50;38.60
41644;DHT22;44236;48.098;11.582;2023-04-03T15:47:09;20.50;38.40
41644;DHT22;44236;48.098;11.582;2023-04-03T15:49:35;20.50;38.70
41644;DHT22;44236;48.098;11.582;2023-04-03T15:52:01;20.50;39.60
41644;DHT22;44236;48.098;11.582;2023-04-03T15:54:31;20.60;39.90
41644;DHT22;44236;48.098;11.582;2023-04-03T15:56:57;20.60;39.70
41644;DHT22;44236;48.098;11.582;2023-04-03T15:59:22;20.60;39.20
41644;DHT22;44236;48.098;11.582;2023-04-03T16:01:49;20.60;39.40
41644;DHT22;44236;48.098;11.582;2023-04-03T16:04:16;20.60;39.50
41644;DHT22;44236;48.098;11.582;2023-04-03T16:06:42;20.60;38.90
41644;DHT22;44236;48.098;11.582;2023-04-03T16:09:08;20.60;38.60
41644;DHT22;44236;48.098;11.582;2023-04-03T16:11:34;20.60;39.00
41644;DHT22;44236;48.098;11.582;2023-04-03T16:14:01;20.60;40.00
41644;DHT22;44236;48.098;11.582;2023-04-03T16:16:27;20.60;38.80
41644;DHT22;44236;48.098;11.582;2023-04-03T16:18:54;20.60;38.50
41644;DHT22;44236;48.098;11.582;2023-04-03T16:21:21;20.50;38.30
41644;DHT22;44236;48.098;11.582;2023-04-03T16:23:47;20.50;38.30
41644;DHT22;44236;48.098;11.582;2023-04-03T16:26:13;20.40;38.40
41644;DHT22;44236;48.098;11.582;2023-04-03T16:28:39;20.40;39.10
41644;DHT22;44236;48.098;11.582;2023-04-03T16:31:05;20.40;38.70
41644;DHT22;44236;48.098;11.582;2023-04-03T16:33:31;20.40;38.60
41644;DHT22;44236;48.098;11.582;2023-04-03T16:35:57;20.30;38.30
41644;DHT22;44236;48.098;11.582;2023-04-03T16:38:23;20.30;38.20
41644;DHT22;44236;48.098;11.582;2023-04-03T16:40:49;20.30;38.20
41644;DHT22;44236;48.098;11.582;2023-04-03T16:43:15;20.30;38.40
41644;DHT22;44236;48.098;11.582;2023-04-03T16:45:41;20.20;38.40
41644;DHT22;44236;48.098;11.582;2023-04-03T16:48:07;20.20;38.40
41644;DHT22;44236;48.098;11.582;2023-04-03T16:50:33;20.20;38.30
41644;DHT22;44236;48.098;11.582;2023-04-03T16:52:59;20.10;38.30
41644;DHT22;44236;48.098;11.582;2023-04-03T16:55:25;20.10;38.50
41644;DHT22;44236;48.098;11.582;2023-04-03T16:57:50;20.10;38.60
41644;DHT22;44236;48.098;11.582;2023-04-03T17:00:16;20.00;38.50
41644;DHT22;44236;48.098;11.582;2023-04-03T17:02:42;20.00;38.70
41644;DHT22;44236;48.098;11.582;2023-04-03T17:05:08;20.00;38.80
41644;DHT22;44236;48.098;11.582;2023-04-03T17:07:34;19.90;39.30
41644;DHT22;44236;48.098;11.582;2023-04-03T17:10:00;19.90;38.90
41644;DHT22;44236;48.098;11.582;2023-04-03T17:12:25;19.90;38.90
41644;DHT22;44236;48.098;11.582;2023-04-03T17:14:51;19.80;38.90
41644;DHT22;44236;48.098;11.582;2023-04-03T17:17:21;19.80;38.80
41644;DHT22;44236;48.098;11.582;2023-04-03T17:19:47;19.80;38.90
41644;DHT22;44236;48.098;11.582;2023-04-03T17:22:13;19.80;39.10
41644;DHT22;44236;48.098;11.582;2023-04-03T17:24:39;19.70;39.00
41644;DHT22;44236;48.098;11.582;2023-04-03T17:27:05;19.70;38.90
41644;DHT22;44236;48.098;11.582;2023-04-03T17:29:30;19.70;39.00
41644;DHT22;44236;48.098;11.582;2023-04-03T17:31:56;19.60;39.10
41644;DHT22;44236;48.098;11.582;2023-04-03T17:34:22;19.60;38.90
41644;DHT22;44236;48.098;11.582;2023-04-03T17:36:47;19.60;38.90
41644;DHT22;44236;48.098;11.582;2023-04-03T17:39:13;19.50;38.50
41644;DHT22;44236;48.098;11.582;2023-04-03T17:41:39;19.50;38.80